Maria/jo Ann — WCZ7939 — position and weather

sailwx.info

Track history (hours):
 
Tides and Currents Weather Stations Pressure Air Temp Water Temp Dewpoint Dewpoint Depression Visibility Wind Speed Wind Dir Waves Ship Positions

Maria/jo Ann

Owner: BOAT SANTA RITA III INC, Peabody, MA. More information available from US FCC via Universal Licensing System.

Last reported at 2018-Feb-22 07:00 UTC. Time now 2018-Feb-22 07:06 UTC.
Position N 42°35' W 070°35'.

Type: Fishing. MMSI: 367440240.

Date/timePositionNaut miles runAvg speedWind from/ knotsBaromVisibWave heightAir tempDewpointWater temp
2018-Feb-22 07:00N 42°35' W 070°35'4 7.3
2018-Feb-22 06:30N 42°34' W 070°39'3 5.1
2018-Feb-22 05:59N 42°37' W 070°39'0 0.0
2018-Feb-22 05:29N 42°37' W 070°39'0 0.0
2018-Feb-22 04:59N 42°37' W 070°39'1 1.8
2018-Feb-22 04:29N 42°36' W 070°40'2 4.6
2018-Feb-22 04:00N 42°34' W 070°38'3 6.7
2018-Feb-22 03:30N 42°34' W 070°34'4 7.7
2018-Feb-22 03:00N 42°33' W 070°29'4 7.4
2018-Feb-22 02:30N 42°33' W 070°24'4 7.3
2018-Feb-22 02:00N 42°33' W 070°19'  
2018-Feb-19 06:55N 42°32' W 070°18'3 6.9
2018-Feb-19 06:30N 42°31' W 070°21'3 6.8
2018-Feb-19 06:00N 42°30' W 070°25'3 6.8
2018-Feb-19 05:30N 42°29' W 070°30'3 6.7
2018-Feb-19 05:00N 42°27' W 070°34'3 6.7
2018-Feb-19 04:30N 42°26' W 070°38'4 6.7
2018-Feb-19 03:58N 42°25' W 070°43'  
Track history (hours):
 
Tides and Currents Weather Stations Pressure Air Temp Water Temp Dewpoint Dewpoint Depression Visibility Wind Speed Wind Dir Waves Ship Positions

Maria/jo Ann

Owner: BOAT SANTA RITA III INC, Peabody, MA. More information available from US FCC via Universal Licensing System.

Last reported at 2018-Feb-22 07:00 UTC. Time now 2018-Feb-22 07:06 UTC.
Position N 42°35' W 070°35'.

Type: Fishing. MMSI: 367440240.

Date/timePositionNaut miles runAvg speedWind from/ knotsBaromVisibWave heightAir tempDewpointWater temp
2018-Feb-22 07:00N 42°35' W 070°35'4 7.3
2018-Feb-22 06:30N 42°34' W 070°39'3 5.1
2018-Feb-22 05:59N 42°37' W 070°39'0 0.0
2018-Feb-22 05:29N 42°37' W 070°39'0 0.0
2018-Feb-22 04:59N 42°37' W 070°39'1 1.8
2018-Feb-22 04:29N 42°36' W 070°40'2 4.6
2018-Feb-22 04:00N 42°34' W 070°38'3 6.7
2018-Feb-22 03:30N 42°34' W 070°34'4 7.7
2018-Feb-22 03:00N 42°33' W 070°29'4 7.4
2018-Feb-22 02:30N 42°33' W 070°24'4 7.3
2018-Feb-22 02:00N 42°33' W 070°19'  
2018-Feb-19 06:55N 42°32' W 070°18'3 6.9
2018-Feb-19 06:30N 42°31' W 070°21'3 6.8
2018-Feb-19 06:00N 42°30' W 070°25'3 6.8
2018-Feb-19 05:30N 42°29' W 070°30'3 6.7
2018-Feb-19 05:00N 42°27' W 070°34'3 6.7
2018-Feb-19 04:30N 42°26' W 070°38'4 6.7
2018-Feb-19 03:58N 42°25' W 070°43'  

Dump ship's entire track history